createdAt,value
2018-07-21T00:00:36.628Z,959.06
2018-07-21T00:01:36.634Z,958.99
2018-07-21T00:02:36.637Z,959.02
2018-07-21T00:03:36.639Z,959.03
2018-07-21T00:04:36.643Z,959.01
2018-07-21T00:05:36.650Z,959.00
2018-07-21T00:06:36.645Z,958.99
2018-07-21T00:07:36.651Z,959.01
2018-07-21T00:08:36.653Z,958.98
2018-07-21T00:09:36.656Z,958.98
2018-07-21T00:10:36.658Z,958.99
2018-07-21T00:11:36.666Z,959.03
2018-07-21T00:12:36.671Z,958.99
2018-07-21T00:13:36.669Z,959.02
2018-07-21T00:14:36.673Z,959.03
2018-07-21T00:15:36.676Z,959.01
2018-07-21T00:16:36.677Z,959.04
2018-07-21T00:17:36.681Z,959.07
2018-07-21T00:18:36.684Z,959.04
2018-07-21T00:19:36.687Z,959.07
2018-07-21T00:20:36.690Z,959.09
2018-07-21T00:21:36.693Z,959.09
2018-07-21T00:22:36.697Z,959.05
2018-07-21T00:23:36.700Z,959.06
2018-07-21T00:24:36.702Z,959.10
2018-07-21T00:25:36.707Z,959.08
2018-07-21T00:26:36.708Z,959.11
2018-07-21T00:27:36.710Z,959.10
2018-07-21T00:28:36.715Z,959.11
2018-07-21T00:29:36.717Z,959.14
2018-07-21T00:30:36.726Z,959.13
2018-07-21T00:31:36.736Z,959.17
2018-07-21T00:32:36.728Z,959.17
2018-07-21T00:33:36.728Z,959.12
2018-07-21T00:34:36.737Z,959.11
2018-07-21T00:35:36.743Z,959.15
2018-07-21T00:36:36.737Z,959.15
2018-07-21T00:37:36.743Z,959.14
2018-07-21T00:38:36.742Z,959.08
2018-07-21T00:39:36.750Z,959.14
2018-07-21T00:40:36.748Z,959.13
2018-07-21T00:41:36.752Z,959.12
2018-07-21T00:42:36.756Z,959.10
2018-07-21T00:43:36.763Z,959.13
2018-07-21T00:44:36.761Z,959.10
2018-07-21T00:45:36.764Z,959.14
2018-07-21T00:46:36.769Z,959.11
2018-07-21T00:47:36.770Z,959.11
2018-07-21T00:48:36.775Z,959.10
2018-07-21T00:49:36.776Z,959.15
2018-07-21T00:50:36.779Z,959.16
2018-07-21T00:51:36.784Z,959.10
2018-07-21T00:52:36.787Z,959.09
2018-07-21T00:53:36.788Z,959.10
2018-07-21T00:54:36.789Z,959.06
2018-07-21T00:55:36.797Z,959.07
2018-07-21T00:56:36.799Z,959.08
2018-07-21T00:57:36.806Z,959.09
2018-07-21T00:58:36.803Z,959.07
2018-07-21T00:59:36.808Z,959.06
2018-07-21T01:00:36.811Z,959.09
2018-07-21T01:01:36.813Z,959.07
2018-07-21T01:02:36.815Z,959.06
2018-07-21T01:03:36.819Z,959.09
2018-07-21T01:04:36.823Z,959.09
2018-07-21T01:05:36.825Z,959.01
2018-07-21T01:06:36.829Z,959.03
2018-07-21T01:07:36.833Z,959.02
2018-07-21T01:08:36.835Z,959.02
2018-07-21T01:09:36.848Z,958.97
2018-07-21T01:10:36.841Z,958.96
2018-07-21T01:11:36.846Z,958.92
2018-07-21T01:12:36.847Z,958.92
2018-07-21T01:13:36.850Z,958.91
2018-07-21T01:14:36.855Z,958.91
2018-07-21T01:15:36.859Z,958.89
2018-07-21T01:16:36.887Z,958.93
2018-07-21T01:17:36.864Z,958.91
2018-07-21T01:18:36.863Z,958.90
2018-07-21T01:19:36.869Z,958.90
2018-07-21T01:20:36.869Z,958.92
2018-07-21T01:21:36.872Z,958.88
2018-07-21T01:22:36.877Z,958.88
2018-07-21T01:23:36.880Z,958.85
2018-07-21T01:24:36.894Z,958.84
2018-07-21T01:25:36.887Z,958.82
2018-07-21T01:26:36.893Z,958.84
2018-07-21T01:27:36.904Z,958.84
2018-07-21T01:28:36.904Z,958.86
2018-07-21T01:29:36.897Z,958.83
2018-07-21T01:30:36.902Z,958.85
2018-07-21T01:31:36.902Z,958.84
2018-07-21T01:32:36.907Z,958.82
2018-07-21T01:33:36.909Z,958.84
2018-07-21T01:34:36.913Z,958.83
2018-07-21T01:35:36.916Z,958.84
2018-07-21T01:36:36.926Z,958.86
2018-07-21T01:37:36.921Z,958.84
2018-07-21T01:38:36.931Z,958.86
2018-07-21T01:39:36.926Z,958.85
2018-07-21T01:40:36.930Z,958.85
2018-07-21T01:41:36.932Z,958.86
2018-07-21T01:42:36.938Z,958.85
2018-07-21T01:43:36.939Z,958.85
2018-07-21T01:44:36.942Z,958.90
2018-07-21T01:45:36.947Z,958.91
2018-07-21T01:46:36.950Z,958.90
2018-07-21T01:47:36.948Z,958.92
2018-07-21T01:48:36.960Z,958.90
2018-07-21T01:49:36.955Z,958.88
2018-07-21T01:50:36.958Z,958.89
2018-07-21T01:51:36.961Z,958.87
2018-07-21T01:52:36.965Z,958.89
2018-07-21T01:53:36.966Z,958.87
2018-07-21T01:54:36.983Z,958.90
2018-07-21T01:55:36.976Z,958.86
2018-07-21T01:56:36.973Z,958.86
2018-07-21T01:57:36.977Z,958.89
2018-07-21T01:58:36.983Z,958.87
2018-07-21T01:59:36.984Z,958.87
2018-07-21T02:00:36.987Z,958.90
2018-07-21T02:01:36.988Z,958.87
2018-07-21T02:02:36.998Z,958.80
2018-07-21T02:03:37.022Z,958.83
2018-07-21T02:04:37.021Z,958.78
2018-07-21T02:05:37.006Z,958.81
2018-07-21T02:06:37.000Z,958.78
2018-07-21T02:07:37.003Z,958.76
2018-07-21T02:08:37.007Z,958.73
2018-07-21T02:09:37.010Z,958.71
2018-07-21T02:10:37.015Z,958.76
2018-07-21T02:11:37.017Z,958.72
2018-07-21T02:12:37.062Z,958.74
2018-07-21T02:13:37.022Z,958.77
2018-07-21T02:14:37.023Z,958.75
2018-07-21T02:15:37.024Z,958.76
2018-07-21T02:16:37.030Z,958.74
2018-07-21T02:17:37.029Z,958.72
2018-07-21T02:18:37.035Z,958.72
2018-07-21T02:19:37.076Z,958.71
2018-07-21T02:20:37.037Z,958.71
2018-07-21T02:21:37.041Z,958.77
2018-07-21T02:22:37.103Z,958.77
2018-07-21T02:23:37.051Z,958.77
2018-07-21T02:24:37.048Z,958.76
2018-07-21T02:25:37.050Z,958.75
2018-07-21T02:26:37.051Z,958.76
2018-07-21T02:27:37.064Z,958.75
2018-07-21T02:28:37.057Z,958.72
2018-07-21T02:29:37.059Z,958.73
2018-07-21T02:30:37.064Z,958.77
2018-07-21T02:31:37.065Z,958.74
2018-07-21T02:32:37.067Z,958.70
2018-07-21T02:33:37.069Z,958.69
2018-07-21T02:34:37.077Z,958.69
2018-07-21T02:35:37.084Z,958.67
2018-07-21T02:36:37.075Z,958.65
2018-07-21T02:37:37.078Z,958.67
2018-07-21T02:38:37.092Z,958.66
2018-07-21T02:39:37.083Z,958.64
2018-07-21T02:40:37.085Z,958.70
2018-07-21T02:41:37.088Z,958.67
2018-07-21T02:42:37.088Z,958.68
2018-07-21T02:43:37.109Z,958.62
2018-07-21T02:44:37.097Z,958.64
2018-07-21T02:45:37.211Z,958.59
2018-07-21T02:46:37.099Z,958.60
2018-07-21T02:47:37.101Z,958.57
2018-07-21T02:48:37.107Z,958.58
2018-07-21T02:49:37.108Z,958.57
2018-07-21T02:50:37.115Z,958.59
2018-07-21T02:51:37.132Z,958.61
2018-07-21T02:52:37.113Z,958.55
2018-07-21T02:53:37.129Z,958.57
2018-07-21T02:54:37.117Z,958.54
2018-07-21T02:55:37.138Z,958.57
2018-07-21T02:56:37.126Z,958.53
2018-07-21T02:57:37.124Z,958.54
2018-07-21T02:58:37.124Z,958.57
2018-07-21T02:59:37.131Z,958.56
2018-07-21T03:00:37.132Z,958.56
2018-07-21T03:01:37.133Z,958.53
2018-07-21T03:02:37.133Z,958.52
2018-07-21T03:03:37.134Z,958.51
2018-07-21T03:04:37.136Z,958.49
2018-07-21T03:05:37.144Z,958.50
2018-07-21T03:06:37.141Z,958.49
2018-07-21T03:07:37.148Z,958.51
2018-07-21T03:08:37.147Z,958.52
2018-07-21T03:09:37.147Z,958.49
2018-07-21T03:10:37.153Z,958.50
2018-07-21T03:11:37.153Z,958.49
2018-07-21T03:12:37.159Z,958.54
2018-07-21T03:13:37.159Z,958.50
2018-07-21T03:14:37.159Z,958.49
2018-07-21T03:15:37.159Z,958.52
2018-07-21T03:16:37.168Z,958.55
2018-07-21T03:17:37.185Z,958.52
2018-07-21T03:18:37.165Z,958.53
2018-07-21T03:19:37.173Z,958.53
2018-07-21T03:20:37.173Z,958.55
2018-07-21T03:21:37.173Z,958.53
2018-07-21T03:22:37.173Z,958.52
2018-07-21T03:23:37.178Z,958.51
2018-07-21T03:24:37.180Z,958.46
2018-07-21T03:25:37.180Z,958.47
2018-07-21T03:26:37.178Z,958.48
2018-07-21T03:27:37.183Z,958.48
2018-07-21T03:28:37.187Z,958.47
2018-07-21T03:29:37.188Z,958.48
2018-07-21T03:30:37.190Z,958.44
2018-07-21T03:31:37.191Z,958.50
2018-07-21T03:32:37.194Z,958.46
2018-07-21T03:33:37.194Z,958.43
2018-07-21T03:34:37.200Z,958.43
2018-07-21T03:35:37.204Z,958.40
2018-07-21T03:36:37.202Z,958.43
2018-07-21T03:37:37.203Z,958.39
2018-07-21T03:38:37.208Z,958.42
2018-07-21T03:39:37.226Z,958.42
2018-07-21T03:40:37.257Z,958.43
2018-07-21T03:41:37.210Z,958.42
2018-07-21T03:42:37.211Z,958.42
2018-07-21T03:43:37.215Z,958.42
2018-07-21T03:44:37.220Z,958.41
2018-07-21T03:45:37.217Z,958.47
2018-07-21T03:46:37.221Z,958.51
2018-07-21T03:47:37.241Z,958.51
2018-07-21T03:48:37.226Z,958.55
2018-07-21T03:49:37.227Z,958.56
2018-07-21T03:50:37.229Z,958.59
2018-07-21T03:51:37.246Z,958.61
2018-07-21T03:52:37.241Z,958.62
2018-07-21T03:53:37.233Z,958.55
2018-07-21T03:54:37.236Z,958.52
2018-07-21T03:55:37.236Z,958.51
2018-07-21T03:56:37.236Z,958.50
2018-07-21T03:57:37.243Z,958.52
2018-07-21T03:58:37.247Z,958.49
2018-07-21T03:59:37.248Z,958.46
2018-07-21T04:00:37.312Z,958.42
2018-07-21T04:01:37.252Z,958.39
2018-07-21T04:02:37.252Z,958.41
2018-07-21T04:03:37.253Z,958.44
2018-07-21T04:04:37.256Z,958.46
2018-07-21T04:05:37.273Z,958.45
2018-07-21T04:06:37.262Z,958.50
2018-07-21T04:07:37.262Z,958.49
2018-07-21T04:08:37.261Z,958.45
2018-07-21T04:09:37.264Z,958.39
2018-07-21T04:10:37.272Z,958.33
2018-07-21T04:11:37.275Z,958.34
2018-07-21T04:12:37.272Z,958.30
2018-07-21T04:13:37.278Z,958.31
2018-07-21T04:14:37.274Z,958.26
2018-07-21T04:15:37.277Z,958.29
2018-07-21T04:16:37.279Z,958.29
2018-07-21T04:17:37.280Z,958.26
2018-07-21T04:18:37.296Z,958.28
2018-07-21T04:19:37.286Z,958.29
2018-07-21T04:20:37.289Z,958.30
2018-07-21T04:21:37.288Z,958.27
2018-07-21T04:22:37.294Z,958.26
2018-07-21T04:23:37.295Z,958.29
2018-07-21T04:24:37.296Z,958.33
2018-07-21T04:25:37.296Z,958.32
2018-07-21T04:26:37.295Z,958.29
2018-07-21T04:27:37.300Z,958.27
2018-07-21T04:28:37.301Z,958.26
2018-07-21T04:29:37.300Z,958.24
2018-07-21T04:30:37.303Z,958.24
2018-07-21T04:31:37.308Z,958.20
2018-07-21T04:32:37.310Z,958.23
2018-07-21T04:33:37.309Z,958.23
2018-07-21T04:34:37.311Z,958.24
2018-07-21T04:35:37.314Z,958.24
2018-07-21T04:36:37.314Z,958.23
2018-07-21T04:37:37.316Z,958.23
2018-07-21T04:38:37.316Z,958.17
2018-07-21T04:39:37.332Z,958.19
2018-07-21T04:40:37.328Z,958.19
2018-07-21T04:41:37.325Z,958.20
2018-07-21T04:42:37.329Z,958.18
2018-07-21T04:43:37.329Z,958.23
2018-07-21T04:44:37.330Z,958.24
2018-07-21T04:45:37.332Z,958.22
2018-07-21T04:46:37.339Z,958.19
2018-07-21T04:47:37.338Z,958.15
2018-07-21T04:48:37.339Z,958.17
2018-07-21T04:49:37.338Z,958.14
2018-07-21T04:50:37.343Z,958.17
2018-07-21T04:51:37.349Z,958.15
2018-07-21T04:52:37.348Z,958.13
2018-07-21T04:53:37.350Z,958.12
2018-07-21T04:54:37.353Z,958.14
2018-07-21T04:55:37.353Z,958.16
2018-07-21T04:56:37.352Z,958.17
2018-07-21T04:57:37.357Z,958.16
2018-07-21T04:58:37.359Z,958.16
2018-07-21T04:59:37.364Z,958.16
2018-07-21T05:00:37.387Z,958.18
2018-07-21T05:01:37.369Z,958.18
2018-07-21T05:02:37.368Z,958.14
2018-07-21T05:03:37.371Z,958.11
2018-07-21T05:04:37.376Z,958.11
2018-07-21T05:05:37.373Z,958.11
2018-07-21T05:06:37.383Z,958.10
2018-07-21T05:07:37.380Z,958.13
2018-07-21T05:08:37.383Z,958.14
2018-07-21T05:09:37.385Z,958.17
2018-07-21T05:10:37.387Z,958.20
2018-07-21T05:11:37.390Z,958.20
2018-07-21T05:12:37.391Z,958.20
2018-07-21T05:13:37.394Z,958.22
2018-07-21T05:14:37.399Z,958.21
2018-07-21T05:15:37.399Z,958.16
2018-07-21T05:16:37.401Z,958.16
2018-07-21T05:17:37.403Z,958.18
2018-07-21T05:18:37.406Z,958.20
2018-07-21T05:19:37.419Z,958.17
2018-07-21T05:20:37.413Z,958.19
2018-07-21T05:21:37.414Z,958.22
2018-07-21T05:22:37.417Z,958.25
2018-07-21T05:23:37.419Z,958.25
2018-07-21T05:24:37.422Z,958.24
2018-07-21T05:25:37.428Z,958.29
2018-07-21T05:26:37.434Z,958.30
2018-07-21T05:27:37.458Z,958.30
2018-07-21T05:28:37.709Z,958.31
2018-07-21T05:29:37.438Z,958.27
2018-07-21T05:30:37.440Z,958.29
2018-07-21T05:31:37.445Z,958.29
2018-07-21T05:32:37.451Z,958.33
2018-07-21T05:33:37.452Z,958.29
2018-07-21T05:34:37.462Z,958.32
2018-07-21T05:35:37.458Z,958.29
2018-07-21T05:36:37.460Z,958.29
2018-07-21T05:37:37.461Z,958.33
2018-07-21T05:38:37.468Z,958.27
2018-07-21T05:39:37.472Z,958.29
2018-07-21T05:40:37.476Z,958.30
2018-07-21T05:41:37.476Z,958.30
2018-07-21T05:42:37.480Z,958.30
2018-07-21T05:43:37.489Z,958.34
2018-07-21T05:44:37.487Z,958.33
2018-07-21T05:45:37.492Z,958.34
2018-07-21T05:46:37.501Z,958.38
2018-07-21T05:47:37.500Z,958.38
2018-07-21T05:48:37.505Z,958.38
2018-07-21T05:49:37.507Z,958.38
2018-07-21T05:50:37.511Z,958.41
2018-07-21T05:51:37.514Z,958.39
2018-07-21T05:52:37.519Z,958.40
2018-07-21T05:53:37.521Z,958.44
2018-07-21T05:54:37.574Z,958.38
2018-07-21T05:55:37.529Z,958.36
2018-07-21T05:56:37.533Z,958.38
2018-07-21T05:57:37.537Z,958.40
2018-07-21T05:58:37.542Z,958.40
2018-07-21T05:59:37.547Z,958.37
2018-07-21T06:00:37.555Z,958.37
2018-07-21T06:01:37.554Z,958.35
2018-07-21T06:02:37.585Z,958.38
2018-07-21T06:03:37.564Z,958.38
2018-07-21T06:04:37.585Z,958.38
2018-07-21T06:05:37.571Z,958.40
2018-07-21T06:06:37.574Z,958.40
2018-07-21T06:07:37.581Z,958.35
2018-07-21T06:08:37.634Z,958.40
2018-07-21T06:09:37.589Z,958.34
2018-07-21T06:10:37.594Z,958.33
2018-07-21T06:11:37.597Z,958.35
2018-07-21T06:12:37.604Z,958.35
2018-07-21T06:13:37.606Z,958.31
2018-07-21T06:14:37.612Z,958.29
2018-07-21T06:15:37.617Z,958.29
2018-07-21T06:16:37.622Z,958.27
2018-07-21T06:17:37.626Z,958.30
2018-07-21T06:18:37.640Z,958.25
2018-07-21T06:19:37.635Z,958.29
2018-07-21T06:20:37.641Z,958.29
2018-07-21T06:21:37.654Z,958.29
2018-07-21T06:22:37.676Z,958.34
2018-07-21T06:23:37.676Z,958.36
2018-07-21T06:24:37.657Z,958.34
2018-07-21T06:25:37.663Z,958.36
2018-07-21T06:26:37.667Z,958.36
2018-07-21T06:27:37.686Z,958.41
2018-07-21T06:28:37.678Z,958.43
2018-07-21T06:29:37.682Z,958.44
2018-07-21T06:30:37.688Z,958.39
2018-07-21T06:31:37.692Z,958.40
2018-07-21T06:32:37.698Z,958.43
2018-07-21T06:33:37.702Z,958.43
2018-07-21T06:34:37.709Z,958.48
2018-07-21T06:35:37.745Z,958.48
2018-07-21T06:36:37.752Z,958.46
2018-07-21T06:37:37.722Z,958.48
2018-07-21T06:38:37.727Z,958.49
2018-07-21T06:39:37.732Z,958.51
2018-07-21T06:40:37.737Z,958.52
2018-07-21T06:41:37.757Z,958.53
2018-07-21T06:42:37.748Z,958.53
2018-07-21T06:43:37.749Z,958.53
2018-07-21T06:44:37.758Z,958.52
2018-07-21T06:45:37.764Z,958.49
2018-07-21T06:46:37.811Z,958.42
2018-07-21T06:47:37.780Z,958.46
2018-07-21T06:48:37.791Z,958.47
2018-07-21T06:49:37.834Z,958.46
2018-07-21T06:50:37.789Z,958.47
2018-07-21T06:51:37.794Z,958.48
2018-07-21T06:52:37.812Z,958.49
2018-07-21T06:53:38.009Z,958.49
2018-07-21T06:54:37.810Z,958.49
2018-07-21T06:55:37.815Z,958.53
2018-07-21T06:56:37.821Z,958.51
2018-07-21T06:57:37.826Z,958.57
2018-07-21T06:58:37.831Z,958.59
2018-07-21T06:59:37.838Z,958.63
2018-07-21T07:00:37.842Z,958.63
2018-07-21T07:01:37.853Z,958.65
2018-07-21T07:02:37.853Z,958.65
2018-07-21T07:03:37.858Z,958.66
2018-07-21T07:04:37.875Z,958.64
2018-07-21T07:05:37.868Z,958.63
2018-07-21T07:06:37.875Z,958.71
2018-07-21T07:07:37.881Z,958.66
2018-07-21T07:08:37.886Z,958.67
2018-07-21T07:09:37.890Z,958.67
2018-07-21T07:10:37.902Z,958.69
2018-07-21T07:11:37.900Z,958.69
2018-07-21T07:12:37.912Z,958.68
2018-07-21T07:13:37.913Z,958.65
2018-07-21T07:14:37.918Z,958.68
2018-07-21T07:15:37.926Z,958.67
2018-07-21T07:16:37.931Z,958.65
2018-07-21T07:17:37.934Z,958.63
2018-07-21T07:18:37.940Z,958.70
2018-07-21T07:19:37.946Z,958.70
2018-07-21T07:20:37.953Z,958.70
2018-07-21T07:21:37.955Z,958.72
2018-07-21T07:22:37.965Z,958.74
2018-07-21T07:23:37.968Z,958.71
2018-07-21T07:24:37.974Z,958.75
2018-07-21T07:25:37.983Z,958.77
2018-07-21T07:26:37.995Z,958.74
2018-07-21T07:27:37.991Z,958.76
2018-07-21T07:28:37.996Z,958.81
2018-07-21T07:29:38.002Z,958.77
2018-07-21T07:30:38.006Z,958.77
2018-07-21T07:31:38.012Z,958.73
2018-07-21T07:32:38.016Z,958.76
2018-07-21T07:33:38.026Z,958.80
2018-07-21T07:34:38.027Z,958.77
2018-07-21T07:35:38.033Z,958.79
2018-07-21T07:36:38.068Z,958.77
2018-07-21T07:37:38.070Z,958.75
2018-07-21T07:38:38.049Z,958.78
2018-07-21T07:39:38.056Z,958.78
2018-07-21T07:40:38.060Z,958.78
2018-07-21T07:41:38.076Z,958.77
2018-07-21T07:42:38.071Z,958.79
2018-07-21T07:43:38.077Z,958.76
2018-07-21T07:44:38.083Z,958.81
2018-07-21T07:45:38.092Z,958.79
2018-07-21T07:46:38.093Z,958.78
2018-07-21T07:47:38.121Z,958.78
2018-07-21T07:48:38.110Z,958.78
2018-07-21T07:49:38.108Z,958.75
2018-07-21T07:50:38.125Z,958.74
2018-07-21T07:51:38.121Z,958.75
2018-07-21T07:52:38.126Z,958.77
2018-07-21T07:53:38.135Z,958.80
2018-07-21T07:54:38.137Z,958.83
2018-07-21T07:55:38.143Z,958.84
2018-07-21T07:56:38.151Z,958.86
2018-07-21T07:57:38.161Z,958.87
2018-07-21T07:58:38.160Z,958.90
2018-07-21T07:59:38.180Z,958.85
2018-07-21T08:00:38.172Z,958.86
2018-07-21T08:01:38.175Z,958.90
2018-07-21T08:02:38.182Z,958.91
2018-07-21T08:03:38.192Z,958.92
2018-07-21T08:04:38.204Z,958.91
2018-07-21T08:05:38.207Z,958.93
2018-07-21T08:06:38.203Z,958.90
2018-07-21T08:07:38.232Z,958.93
2018-07-21T08:08:38.295Z,958.93
2018-07-21T08:09:38.232Z,958.99
2018-07-21T08:10:38.250Z,958.92
2018-07-21T08:11:38.233Z,958.92
2018-07-21T08:12:38.326Z,958.96
2018-07-21T08:13:38.277Z,958.95
2018-07-21T08:14:38.262Z,958.94
2018-07-21T08:15:38.253Z,958.95
2018-07-21T08:16:38.272Z,958.94
2018-07-21T08:17:38.290Z,958.97
2018-07-21T08:18:38.265Z,958.95
2018-07-21T08:19:38.278Z,958.99
2018-07-21T08:20:38.285Z,959.04
2018-07-21T08:21:38.308Z,959.06
2018-07-21T08:22:38.289Z,959.02
2018-07-21T08:23:38.299Z,959.04
2018-07-21T08:24:38.346Z,959.06
2018-07-21T08:25:38.336Z,959.07
2018-07-21T08:26:38.317Z,959.04
2018-07-21T08:27:38.318Z,959.07
2018-07-21T08:28:38.369Z,959.09
2018-07-21T08:29:38.337Z,959.07
2018-07-21T08:30:38.358Z,959.10
2018-07-21T08:31:40.100Z,959.10
2018-07-21T08:32:38.347Z,959.12
2018-07-21T08:33:38.365Z,959.12
2018-07-21T08:34:38.417Z,959.12
2018-07-21T08:35:38.389Z,959.12
2018-07-21T08:36:38.396Z,959.13
2018-07-21T08:37:38.406Z,959.14
2018-07-21T08:38:38.390Z,959.18
2018-07-21T08:39:38.384Z,959.18
2018-07-21T08:40:38.418Z,959.21
2018-07-21T08:41:38.453Z,959.21
2018-07-21T08:43:31.480Z,959.19
2018-07-21T08:44:31.332Z,959.24
2018-07-21T08:46:24.206Z,959.24
2018-07-21T08:47:24.257Z,959.28
2018-07-21T08:49:17.146Z,959.24
2018-07-21T08:50:17.146Z,959.28
2018-07-21T08:52:10.066Z,959.34
2018-07-21T08:53:10.043Z,959.31
2018-07-21T08:55:03.044Z,959.31
2018-07-21T08:56:03.028Z,959.31
2018-07-21T08:57:56.381Z,959.30
2018-07-21T08:58:56.366Z,959.31
2018-07-21T09:00:50.244Z,959.29
2018-07-21T09:01:50.196Z,959.26
2018-07-21T09:03:42.769Z,959.26
2018-07-21T09:04:42.719Z,959.25
2018-07-21T09:06:36.365Z,959.28
2018-07-21T09:07:36.356Z,959.28
2018-07-21T09:09:29.077Z,959.30
2018-07-21T09:10:29.093Z,959.35
2018-07-21T09:12:22.274Z,959.38
2018-07-21T09:13:21.959Z,959.36
2018-07-21T09:15:14.907Z,959.39
2018-07-21T09:16:14.847Z,959.42
2018-07-21T09:18:07.796Z,959.43
2018-07-21T09:19:07.752Z,959.45
2018-07-21T09:21:01.051Z,959.46
2018-07-21T09:22:00.639Z,959.48
2018-07-21T09:23:54.123Z,959.54
2018-07-21T09:24:54.041Z,959.51
2018-07-21T09:26:47.945Z,959.54
2018-07-21T09:27:47.900Z,959.58
2018-07-21T09:29:41.334Z,959.56
2018-07-21T09:30:41.317Z,959.57
2018-07-21T09:32:34.703Z,959.54
2018-07-21T09:33:34.231Z,959.53
2018-07-21T09:34:34.242Z,959.53
2018-07-21T09:35:34.699Z,959.52
2018-07-21T09:36:34.210Z,959.53
2018-07-21T09:37:34.213Z,959.52
2018-07-21T09:38:34.221Z,959.49
2018-07-21T09:39:34.224Z,959.48
2018-07-21T09:40:34.231Z,959.51
2018-07-21T09:41:34.233Z,959.52
2018-07-21T09:42:34.243Z,959.51
2018-07-21T09:43:34.253Z,959.50
2018-07-21T09:44:34.250Z,959.52
2018-07-21T09:45:34.253Z,959.51
2018-07-21T09:46:34.529Z,959.52
2018-07-21T09:47:34.299Z,959.55
2018-07-21T09:48:34.274Z,959.54
2018-07-21T09:49:34.277Z,959.58
2018-07-21T09:50:34.282Z,959.59
2018-07-21T09:51:34.289Z,959.61
2018-07-21T09:52:34.292Z,959.57
2018-07-21T09:53:34.299Z,959.64
2018-07-21T09:54:34.330Z,959.66
2018-07-21T09:55:34.388Z,959.70
2018-07-21T09:56:34.334Z,959.68
2018-07-21T09:57:34.323Z,959.69
2018-07-21T09:58:34.326Z,959.71
2018-07-21T09:59:34.336Z,959.68
2018-07-21T10:00:34.334Z,959.69
2018-07-21T10:01:34.399Z,959.69
2018-07-21T10:02:34.351Z,959.68
2018-07-21T10:03:34.351Z,959.66
2018-07-21T10:04:34.357Z,959.65
2018-07-21T10:05:34.364Z,959.62
2018-07-21T10:06:34.369Z,959.66
2018-07-21T10:07:34.376Z,959.66
2018-07-21T10:08:34.378Z,959.66
2018-07-21T10:09:34.382Z,959.64
2018-07-21T10:11:27.329Z,959.71
2018-07-21T10:12:27.315Z,959.69
2018-07-21T10:14:20.278Z,959.69
2018-07-21T10:15:20.200Z,959.77
2018-07-21T10:17:13.323Z,959.76
2018-07-21T10:18:13.064Z,959.78
2018-07-21T10:20:06.399Z,959.77
2018-07-21T10:21:05.970Z,959.81
2018-07-21T10:22:59.073Z,959.85
2018-07-21T10:23:58.839Z,959.85
2018-07-21T10:25:52.675Z,959.89
2018-07-21T10:26:52.284Z,959.86
2018-07-21T10:28:46.271Z,959.84
2018-07-21T10:29:45.968Z,959.88
2018-07-21T10:31:39.630Z,959.91
2018-07-21T10:32:39.251Z,959.94
2018-07-21T10:34:32.792Z,959.96
2018-07-21T10:35:33.199Z,959.97
2018-07-21T10:37:25.582Z,960.02
2018-07-21T10:38:25.551Z,960.02
2018-07-21T10:39:25.480Z,960.06
2018-07-21T10:40:25.572Z,960.07
2018-07-21T10:41:25.712Z,960.05
2018-07-21T10:42:25.506Z,960.03
2018-07-21T10:43:25.485Z,960.04
2018-07-21T10:44:25.527Z,960.02
2018-07-21T10:45:25.502Z,960.08
2018-07-21T10:46:25.498Z,960.06
2018-07-21T10:47:25.512Z,960.10
2018-07-21T10:48:25.509Z,960.08
2018-07-21T10:49:25.513Z,960.12
2018-07-21T10:50:25.519Z,960.11
2018-07-21T10:51:25.522Z,960.18
2018-07-21T10:52:25.529Z,960.17
2018-07-21T10:53:25.533Z,960.13
2018-07-21T10:54:25.541Z,960.17
2018-07-21T10:55:25.540Z,960.15
2018-07-21T10:56:25.553Z,960.13
2018-07-21T10:57:25.553Z,960.13
2018-07-21T10:58:25.562Z,960.13
2018-07-21T10:59:25.564Z,960.17
2018-07-21T11:00:25.570Z,960.16
2018-07-21T11:01:25.573Z,960.11
2018-07-21T11:02:25.599Z,960.12
2018-07-21T11:03:25.586Z,960.16
2018-07-21T11:04:25.592Z,960.16
2018-07-21T11:05:25.592Z,960.15
2018-07-21T11:06:25.602Z,960.15
2018-07-21T11:07:25.605Z,960.16
2018-07-21T11:08:25.607Z,960.16
2018-07-21T11:09:25.611Z,960.15
2018-07-21T11:10:25.614Z,960.17
2018-07-21T11:11:25.622Z,960.21
2018-07-21T11:12:25.625Z,960.24
2018-07-21T11:13:25.633Z,960.23
2018-07-21T11:14:25.636Z,960.23
2018-07-21T11:15:25.703Z,960.24
2018-07-21T11:16:25.645Z,960.28
2018-07-21T11:17:25.673Z,960.26
2018-07-21T11:18:25.656Z,960.24
2018-07-21T11:19:25.661Z,960.25
2018-07-21T11:20:25.664Z,960.31
2018-07-21T11:21:25.670Z,960.27
2018-07-21T11:22:25.674Z,960.30
2018-07-21T11:23:25.682Z,960.28
2018-07-21T11:24:25.684Z,960.31
2018-07-21T11:25:25.688Z,960.31
2018-07-21T11:26:25.698Z,960.33
2018-07-21T11:27:25.698Z,960.32
2018-07-21T11:28:25.704Z,960.32
2018-07-21T11:29:25.708Z,960.32
2018-07-21T11:30:25.713Z,960.32
2018-07-21T11:31:25.724Z,960.36
2018-07-21T11:32:25.722Z,960.34
2018-07-21T11:33:25.728Z,960.33
2018-07-21T11:34:25.731Z,960.34
2018-07-21T11:35:25.759Z,960.34
2018-07-21T11:36:25.760Z,960.36
2018-07-21T11:37:25.745Z,960.35
2018-07-21T11:38:25.749Z,960.30
2018-07-21T11:39:25.754Z,960.33
2018-07-21T11:40:25.760Z,960.34
2018-07-21T11:41:25.764Z,960.34
2018-07-21T11:42:25.768Z,960.34
2018-07-21T11:43:25.777Z,960.40
2018-07-21T11:44:25.831Z,960.42
2018-07-21T11:45:25.788Z,960.41
2018-07-21T11:46:25.787Z,960.44
2018-07-21T11:47:25.791Z,960.42
2018-07-21T11:48:25.805Z,960.46
2018-07-21T11:49:25.798Z,960.42
2018-07-21T11:50:25.807Z,960.46
2018-07-21T11:51:25.809Z,960.43
2018-07-21T11:52:25.815Z,960.46
2018-07-21T11:53:25.819Z,960.43
2018-07-21T11:54:25.822Z,960.42
2018-07-21T11:55:25.826Z,960.43
2018-07-21T11:56:25.830Z,960.44
2018-07-21T11:57:25.831Z,960.47
2018-07-21T11:58:25.839Z,960.46
2018-07-21T11:59:25.841Z,960.42
2018-07-21T12:00:25.849Z,960.45
2018-07-21T12:01:25.851Z,960.45
2018-07-21T12:02:25.860Z,960.48
2018-07-21T12:03:25.861Z,960.46
2018-07-21T12:04:25.875Z,960.53
2018-07-21T12:05:25.937Z,960.47
2018-07-21T12:06:25.874Z,960.46
2018-07-21T12:07:25.879Z,960.52
2018-07-21T12:08:25.883Z,960.49
2018-07-21T12:09:25.887Z,960.51
2018-07-21T12:10:25.891Z,960.49
2018-07-21T12:11:25.896Z,960.47
2018-07-21T12:12:25.899Z,960.51
2018-07-21T12:13:25.975Z,960.51
2018-07-21T12:14:25.910Z,960.53
2018-07-21T12:15:25.913Z,960.52
2018-07-21T12:16:25.917Z,960.50
2018-07-21T12:17:25.923Z,960.51
2018-07-21T12:18:25.926Z,960.51
2018-07-21T12:19:25.931Z,960.54
2018-07-21T12:20:26.005Z,960.51
2018-07-21T12:21:25.937Z,960.49
2018-07-21T12:22:25.948Z,960.53
2018-07-21T12:23:25.948Z,960.52
2018-07-21T12:24:25.951Z,960.53
2018-07-21T12:25:25.953Z,960.51
2018-07-21T12:26:25.967Z,960.54
2018-07-21T12:27:26.020Z,960.46
2018-07-21T12:28:25.986Z,960.49
2018-07-21T12:29:25.985Z,960.49
2018-07-21T12:30:25.978Z,960.49
2018-07-21T12:31:25.995Z,960.52
2018-07-21T12:32:25.987Z,960.52
2018-07-21T12:33:25.989Z,960.52
2018-07-21T12:34:25.997Z,960.52
2018-07-21T12:35:25.998Z,960.55
2018-07-21T12:36:26.003Z,960.56
2018-07-21T12:37:26.006Z,960.57
2018-07-21T12:38:26.012Z,960.56
2018-07-21T12:39:26.015Z,960.57
2018-07-21T12:40:26.020Z,960.60
2018-07-21T12:41:26.024Z,960.60
2018-07-21T12:42:26.029Z,960.63
2018-07-21T12:43:26.032Z,960.59
2018-07-21T12:44:26.036Z,960.65
2018-07-21T12:45:26.040Z,960.65
2018-07-21T12:46:26.047Z,960.65
2018-07-21T12:47:26.052Z,960.62
2018-07-21T12:48:26.054Z,960.67
2018-07-21T12:49:26.055Z,960.63
2018-07-21T12:50:26.072Z,960.69
2018-07-21T12:51:26.072Z,960.72
2018-07-21T12:52:26.073Z,960.73
2018-07-21T12:53:26.085Z,960.73